<?xml version="1.0" encoding="UTF-8" standalone="no" ?>
<gpx xmlns="http://www.topografix.com/GPX/1/1" xmlns:xsi="http://www.w3.org/2001/XMLSchema-instance" xsi:schemaLocation="http://www.topografix.com/GPX/1/1 http://www.topografix.com/GPX/1/1/gpx.xsd" version="1.1" creator="VisuGPX - https://www.visugpx.com">
  <metadata>
    <name>DANNEMOIS</name>
    <desc><![CDATA[Dannemois avec Gilles le 01/12/2015]]></desc>
  </metadata>
  <trk>
    <name><![CDATA[--Dannemois-- OR-5501740:Dannemois]]></name>
    <trkseg>
      <trkpt lat="48.45395" lon="2.48091">
        <ele>55</ele>
        <time>2015-12-01T13:52:42Z</time>
      </trkpt>
      <trkpt lat="48.45384" lon="2.48065">
        <ele>56</ele>
        <time>2015-12-01T13:54:42Z</time>
      </trkpt>
      <trkpt lat="48.45367" lon="2.4804">
        <ele>56</ele>
        <time>2015-12-01T13:56:42Z</time>
      </trkpt>
      <trkpt lat="48.45345" lon="2.48002">
        <ele>56</ele>
        <time>2015-12-01T13:58:42Z</time>
      </trkpt>
      <trkpt lat="48.45319" lon="2.47964">
        <ele>56</ele>
        <time>2015-12-01T14:00:42Z</time>
      </trkpt>
      <trkpt lat="48.45299" lon="2.4794">
        <ele>56</ele>
        <time>2015-12-01T14:02:42Z</time>
      </trkpt>
      <trkpt lat="48.45279" lon="2.47921">
        <ele>56</ele>
        <time>2015-12-01T14:04:42Z</time>
      </trkpt>
      <trkpt lat="48.45267" lon="2.47909">
        <ele>56</ele>
        <time>2015-12-01T14:06:42Z</time>
      </trkpt>
      <trkpt lat="48.45262" lon="2.47894">
        <ele>56</ele>
        <time>2015-12-01T14:08:42Z</time>
      </trkpt>
      <trkpt lat="48.4526" lon="2.47865">
        <ele>56</ele>
        <time>2015-12-01T14:10:42Z</time>
      </trkpt>
      <trkpt lat="48.45262" lon="2.47843">
        <ele>55</ele>
        <time>2015-12-01T14:12:42Z</time>
      </trkpt>
      <trkpt lat="48.45274" lon="2.47818">
        <ele>55</ele>
        <time>2015-12-01T14:14:42Z</time>
      </trkpt>
      <trkpt lat="48.45285" lon="2.47794">
        <ele>55</ele>
        <time>2015-12-01T14:16:42Z</time>
      </trkpt>
      <trkpt lat="48.45298" lon="2.4777">
        <ele>56</ele>
        <time>2015-12-01T14:18:42Z</time>
      </trkpt>
      <trkpt lat="48.45313" lon="2.47777">
        <ele>56</ele>
        <time>2015-12-01T14:20:42Z</time>
      </trkpt>
      <trkpt lat="48.45348" lon="2.47809">
        <ele>56</ele>
        <time>2015-12-01T14:22:42Z</time>
      </trkpt>
      <trkpt lat="48.45375" lon="2.47837">
        <ele>57</ele>
        <time>2015-12-01T14:24:42Z</time>
      </trkpt>
      <trkpt lat="48.45405" lon="2.47872">
        <ele>58</ele>
        <time>2015-12-01T14:26:42Z</time>
      </trkpt>
      <trkpt lat="48.45434" lon="2.47908">
        <ele>58</ele>
        <time>2015-12-01T14:28:42Z</time>
      </trkpt>
      <trkpt lat="48.45444" lon="2.47921">
        <ele>58</ele>
        <time>2015-12-01T14:30:42Z</time>
      </trkpt>
      <trkpt lat="48.45465" lon="2.47971">
        <ele>56</ele>
        <time>2015-12-01T14:32:42Z</time>
      </trkpt>
      <trkpt lat="48.45483" lon="2.48008">
        <ele>56</ele>
        <time>2015-12-01T14:34:42Z</time>
      </trkpt>
      <trkpt lat="48.45538" lon="2.47972">
        <ele>59</ele>
        <time>2015-12-01T14:36:42Z</time>
      </trkpt>
      <trkpt lat="48.45558" lon="2.47954">
        <ele>60</ele>
        <time>2015-12-01T14:38:42Z</time>
      </trkpt>
      <trkpt lat="48.45575" lon="2.4793">
        <ele>62</ele>
        <time>2015-12-01T14:40:42Z</time>
      </trkpt>
      <trkpt lat="48.45586" lon="2.47893">
        <ele>63</ele>
        <time>2015-12-01T14:42:42Z</time>
      </trkpt>
      <trkpt lat="48.4559" lon="2.47879">
        <ele>63</ele>
        <time>2015-12-01T14:44:42Z</time>
      </trkpt>
      <trkpt lat="48.45596" lon="2.47858">
        <ele>64</ele>
        <time>2015-12-01T14:46:42Z</time>
      </trkpt>
      <trkpt lat="48.45596" lon="2.47847">
        <ele>64</ele>
        <time>2015-12-01T14:48:42Z</time>
      </trkpt>
      <trkpt lat="48.45596" lon="2.47814">
        <ele>65</ele>
        <time>2015-12-01T14:50:42Z</time>
      </trkpt>
      <trkpt lat="48.45599" lon="2.4779">
        <ele>65</ele>
        <time>2015-12-01T14:52:42Z</time>
      </trkpt>
      <trkpt lat="48.45606" lon="2.47763">
        <ele>66</ele>
        <time>2015-12-01T14:54:42Z</time>
      </trkpt>
      <trkpt lat="48.45616" lon="2.47719">
        <ele>66</ele>
        <time>2015-12-01T14:56:42Z</time>
      </trkpt>
      <trkpt lat="48.45626" lon="2.47678">
        <ele>67</ele>
        <time>2015-12-01T14:58:42Z</time>
      </trkpt>
      <trkpt lat="48.45639" lon="2.47621">
        <ele>67</ele>
        <time>2015-12-01T15:00:42Z</time>
      </trkpt>
      <trkpt lat="48.45655" lon="2.47572">
        <ele>67</ele>
        <time>2015-12-01T15:02:42Z</time>
      </trkpt>
      <trkpt lat="48.45671" lon="2.47532">
        <ele>67</ele>
        <time>2015-12-01T15:04:42Z</time>
      </trkpt>
      <trkpt lat="48.45704" lon="2.47451">
        <ele>65</ele>
        <time>2015-12-01T15:06:42Z</time>
      </trkpt>
      <trkpt lat="48.45724" lon="2.47406">
        <ele>65</ele>
        <time>2015-12-01T15:08:42Z</time>
      </trkpt>
      <trkpt lat="48.45732" lon="2.47376">
        <ele>65</ele>
        <time>2015-12-01T15:10:42Z</time>
      </trkpt>
      <trkpt lat="48.45745" lon="2.47337">
        <ele>64</ele>
        <time>2015-12-01T15:12:42Z</time>
      </trkpt>
      <trkpt lat="48.4576" lon="2.47295">
        <ele>65</ele>
        <time>2015-12-01T15:14:42Z</time>
      </trkpt>
      <trkpt lat="48.45781" lon="2.47257">
        <ele>67</ele>
        <time>2015-12-01T15:16:42Z</time>
      </trkpt>
      <trkpt lat="48.4579" lon="2.47239">
        <ele>68</ele>
        <time>2015-12-01T15:18:42Z</time>
      </trkpt>
      <trkpt lat="48.45797" lon="2.47237">
        <ele>69</ele>
        <time>2015-12-01T15:20:42Z</time>
      </trkpt>
      <trkpt lat="48.45804" lon="2.47238">
        <ele>69</ele>
        <time>2015-12-01T15:22:42Z</time>
      </trkpt>
      <trkpt lat="48.45812" lon="2.47237">
        <ele>70</ele>
        <time>2015-12-01T15:24:42Z</time>
      </trkpt>
      <trkpt lat="48.45841" lon="2.47103">
        <ele>73</ele>
        <time>2015-12-01T15:26:42Z</time>
      </trkpt>
      <trkpt lat="48.4585" lon="2.47068">
        <ele>74</ele>
        <time>2015-12-01T15:28:42Z</time>
      </trkpt>
      <trkpt lat="48.45848" lon="2.47062">
        <ele>74</ele>
        <time>2015-12-01T15:30:42Z</time>
      </trkpt>
      <trkpt lat="48.45837" lon="2.47053">
        <ele>74</ele>
        <time>2015-12-01T15:32:42Z</time>
      </trkpt>
      <trkpt lat="48.45881" lon="2.46799">
        <ele>74</ele>
        <time>2015-12-01T15:34:42Z</time>
      </trkpt>
      <trkpt lat="48.45952" lon="2.46825">
        <ele>76</ele>
        <time>2015-12-01T15:36:42Z</time>
      </trkpt>
      <trkpt lat="48.46031" lon="2.46854">
        <ele>81</ele>
        <time>2015-12-01T15:38:42Z</time>
      </trkpt>
      <trkpt lat="48.46051" lon="2.46863">
        <ele>83</ele>
        <time>2015-12-01T15:40:42Z</time>
      </trkpt>
      <trkpt lat="48.46067" lon="2.46866">
        <ele>85</ele>
        <time>2015-12-01T15:42:42Z</time>
      </trkpt>
      <trkpt lat="48.46071" lon="2.46825">
        <ele>85</ele>
        <time>2015-12-01T15:44:42Z</time>
      </trkpt>
      <trkpt lat="48.46078" lon="2.46781">
        <ele>85</ele>
        <time>2015-12-01T15:46:42Z</time>
      </trkpt>
      <trkpt lat="48.46082" lon="2.46751">
        <ele>85</ele>
        <time>2015-12-01T15:48:42Z</time>
      </trkpt>
      <trkpt lat="48.46085" lon="2.46721">
        <ele>85</ele>
        <time>2015-12-01T15:50:42Z</time>
      </trkpt>
      <trkpt lat="48.4609" lon="2.46669">
        <ele>85</ele>
        <time>2015-12-01T15:52:42Z</time>
      </trkpt>
      <trkpt lat="48.46094" lon="2.46639">
        <ele>85</ele>
        <time>2015-12-01T15:54:42Z</time>
      </trkpt>
      <trkpt lat="48.46095" lon="2.46602">
        <ele>85</ele>
        <time>2015-12-01T15:56:42Z</time>
      </trkpt>
      <trkpt lat="48.46098" lon="2.46519">
        <ele>85</ele>
        <time>2015-12-01T15:58:42Z</time>
      </trkpt>
      <trkpt lat="48.461" lon="2.46452">
        <ele>83</ele>
        <time>2015-12-01T16:00:42Z</time>
      </trkpt>
      <trkpt lat="48.46103" lon="2.46399">
        <ele>82</ele>
        <time>2015-12-01T16:02:42Z</time>
      </trkpt>
      <trkpt lat="48.46106" lon="2.46377">
        <ele>83</ele>
        <time>2015-12-01T16:04:42Z</time>
      </trkpt>
      <trkpt lat="48.46106" lon="2.4636">
        <ele>83</ele>
        <time>2015-12-01T16:06:42Z</time>
      </trkpt>
      <trkpt lat="48.46107" lon="2.46349">
        <ele>84</ele>
        <time>2015-12-01T16:08:42Z</time>
      </trkpt>
      <trkpt lat="48.46114" lon="2.46293">
        <ele>84</ele>
        <time>2015-12-01T16:10:42Z</time>
      </trkpt>
      <trkpt lat="48.4612" lon="2.46258">
        <ele>83</ele>
        <time>2015-12-01T16:12:42Z</time>
      </trkpt>
      <trkpt lat="48.46135" lon="2.46185">
        <ele>83</ele>
        <time>2015-12-01T16:14:42Z</time>
      </trkpt>
      <trkpt lat="48.46146" lon="2.46151">
        <ele>83</ele>
        <time>2015-12-01T16:16:42Z</time>
      </trkpt>
      <trkpt lat="48.46157" lon="2.46117">
        <ele>84</ele>
        <time>2015-12-01T16:18:42Z</time>
      </trkpt>
      <trkpt lat="48.46166" lon="2.46087">
        <ele>84</ele>
        <time>2015-12-01T16:20:42Z</time>
      </trkpt>
      <trkpt lat="48.46172" lon="2.46069">
        <ele>85</ele>
        <time>2015-12-01T16:22:42Z</time>
      </trkpt>
      <trkpt lat="48.46174" lon="2.46037">
        <ele>84</ele>
        <time>2015-12-01T16:24:42Z</time>
      </trkpt>
      <trkpt lat="48.46179" lon="2.46011">
        <ele>85</ele>
        <time>2015-12-01T16:26:42Z</time>
      </trkpt>
      <trkpt lat="48.46182" lon="2.45989">
        <ele>85</ele>
        <time>2015-12-01T16:28:42Z</time>
      </trkpt>
      <trkpt lat="48.46187" lon="2.45976">
        <ele>86</ele>
        <time>2015-12-01T16:30:42Z</time>
      </trkpt>
      <trkpt lat="48.4619" lon="2.45958">
        <ele>87</ele>
        <time>2015-12-01T16:32:42Z</time>
      </trkpt>
      <trkpt lat="48.46192" lon="2.45934">
        <ele>87</ele>
        <time>2015-12-01T16:34:42Z</time>
      </trkpt>
      <trkpt lat="48.46193" lon="2.45921">
        <ele>87</ele>
        <time>2015-12-01T16:36:42Z</time>
      </trkpt>
      <trkpt lat="48.46193" lon="2.45898">
        <ele>87</ele>
        <time>2015-12-01T16:38:42Z</time>
      </trkpt>
      <trkpt lat="48.4619" lon="2.45884">
        <ele>87</ele>
        <time>2015-12-01T16:40:42Z</time>
      </trkpt>
      <trkpt lat="48.4619" lon="2.45852">
        <ele>87</ele>
        <time>2015-12-01T16:42:42Z</time>
      </trkpt>
      <trkpt lat="48.46189" lon="2.45835">
        <ele>86</ele>
        <time>2015-12-01T16:44:42Z</time>
      </trkpt>
      <trkpt lat="48.4618" lon="2.45812">
        <ele>85</ele>
        <time>2015-12-01T16:46:42Z</time>
      </trkpt>
      <trkpt lat="48.46172" lon="2.4579">
        <ele>84</ele>
        <time>2015-12-01T16:48:42Z</time>
      </trkpt>
      <trkpt lat="48.46164" lon="2.45755">
        <ele>83</ele>
        <time>2015-12-01T16:50:42Z</time>
      </trkpt>
      <trkpt lat="48.46165" lon="2.45728">
        <ele>83</ele>
        <time>2015-12-01T16:52:42Z</time>
      </trkpt>
      <trkpt lat="48.46162" lon="2.45714">
        <ele>83</ele>
        <time>2015-12-01T16:54:42Z</time>
      </trkpt>
      <trkpt lat="48.46124" lon="2.45638">
        <ele>81</ele>
        <time>2015-12-01T16:56:42Z</time>
      </trkpt>
      <trkpt lat="48.46114" lon="2.45582">
        <ele>80</ele>
        <time>2015-12-01T16:58:42Z</time>
      </trkpt>
      <trkpt lat="48.4611" lon="2.45553">
        <ele>80</ele>
        <time>2015-12-01T17:00:42Z</time>
      </trkpt>
      <trkpt lat="48.46112" lon="2.45521">
        <ele>79</ele>
        <time>2015-12-01T17:02:42Z</time>
      </trkpt>
      <trkpt lat="48.46114" lon="2.45496">
        <ele>79</ele>
        <time>2015-12-01T17:04:42Z</time>
      </trkpt>
      <trkpt lat="48.46115" lon="2.45475">
        <ele>79</ele>
        <time>2015-12-01T17:06:42Z</time>
      </trkpt>
      <trkpt lat="48.46115" lon="2.45457">
        <ele>79</ele>
        <time>2015-12-01T17:08:42Z</time>
      </trkpt>
      <trkpt lat="48.46113" lon="2.45434">
        <ele>78</ele>
        <time>2015-12-01T17:10:42Z</time>
      </trkpt>
      <trkpt lat="48.46125" lon="2.45429">
        <ele>79</ele>
        <time>2015-12-01T17:12:42Z</time>
      </trkpt>
      <trkpt lat="48.46135" lon="2.45422">
        <ele>79</ele>
        <time>2015-12-01T17:14:42Z</time>
      </trkpt>
      <trkpt lat="48.4616" lon="2.45403">
        <ele>79</ele>
        <time>2015-12-01T17:16:42Z</time>
      </trkpt>
      <trkpt lat="48.46191" lon="2.45374">
        <ele>79</ele>
        <time>2015-12-01T17:18:42Z</time>
      </trkpt>
      <trkpt lat="48.4624" lon="2.45331">
        <ele>79</ele>
        <time>2015-12-01T17:20:42Z</time>
      </trkpt>
      <trkpt lat="48.46266" lon="2.45296">
        <ele>79</ele>
        <time>2015-12-01T17:22:42Z</time>
      </trkpt>
      <trkpt lat="48.4629" lon="2.45256">
        <ele>79</ele>
        <time>2015-12-01T17:24:42Z</time>
      </trkpt>
      <trkpt lat="48.46303" lon="2.45235">
        <ele>79</ele>
        <time>2015-12-01T17:26:42Z</time>
      </trkpt>
      <trkpt lat="48.46318" lon="2.45205">
        <ele>79</ele>
        <time>2015-12-01T17:28:42Z</time>
      </trkpt>
      <trkpt lat="48.46338" lon="2.45171">
        <ele>80</ele>
        <time>2015-12-01T17:30:42Z</time>
      </trkpt>
      <trkpt lat="48.46375" lon="2.45102">
        <ele>83</ele>
        <time>2015-12-01T17:32:42Z</time>
      </trkpt>
      <trkpt lat="48.4639" lon="2.45072">
        <ele>84</ele>
        <time>2015-12-01T17:34:42Z</time>
      </trkpt>
      <trkpt lat="48.46411" lon="2.4502">
        <ele>84</ele>
        <time>2015-12-01T17:36:42Z</time>
      </trkpt>
      <trkpt lat="48.46442" lon="2.44954">
        <ele>87</ele>
        <time>2015-12-01T17:38:42Z</time>
      </trkpt>
      <trkpt lat="48.46456" lon="2.44896">
        <ele>87</ele>
        <time>2015-12-01T17:40:42Z</time>
      </trkpt>
      <trkpt lat="48.46467" lon="2.44845">
        <ele>87</ele>
        <time>2015-12-01T17:42:42Z</time>
      </trkpt>
      <trkpt lat="48.46472" lon="2.44816">
        <ele>86</ele>
        <time>2015-12-01T17:44:42Z</time>
      </trkpt>
      <trkpt lat="48.46476" lon="2.44786">
        <ele>86</ele>
        <time>2015-12-01T17:46:42Z</time>
      </trkpt>
      <trkpt lat="48.46479" lon="2.44755">
        <ele>85</ele>
        <time>2015-12-01T17:48:42Z</time>
      </trkpt>
      <trkpt lat="48.46483" lon="2.4473">
        <ele>85</ele>
        <time>2015-12-01T17:50:42Z</time>
      </trkpt>
      <trkpt lat="48.46509" lon="2.44694">
        <ele>85</ele>
        <time>2015-12-01T17:52:42Z</time>
      </trkpt>
      <trkpt lat="48.46522" lon="2.44671">
        <ele>86</ele>
        <time>2015-12-01T17:54:42Z</time>
      </trkpt>
      <trkpt lat="48.46528" lon="2.44664">
        <ele>87</ele>
        <time>2015-12-01T17:56:42Z</time>
      </trkpt>
      <trkpt lat="48.4653" lon="2.44653">
        <ele>86</ele>
        <time>2015-12-01T17:58:42Z</time>
      </trkpt>
      <trkpt lat="48.46533" lon="2.44645">
        <ele>87</ele>
        <time>2015-12-01T18:00:42Z</time>
      </trkpt>
      <trkpt lat="48.46538" lon="2.44611">
        <ele>86</ele>
        <time>2015-12-01T18:02:42Z</time>
      </trkpt>
      <trkpt lat="48.46539" lon="2.4458">
        <ele>85</ele>
        <time>2015-12-01T18:04:42Z</time>
      </trkpt>
      <trkpt lat="48.46539" lon="2.44561">
        <ele>85</ele>
        <time>2015-12-01T18:06:42Z</time>
      </trkpt>
      <trkpt lat="48.46538" lon="2.44539">
        <ele>85</ele>
        <time>2015-12-01T18:08:42Z</time>
      </trkpt>
      <trkpt lat="48.4654" lon="2.44459">
        <ele>85</ele>
        <time>2015-12-01T18:10:42Z</time>
      </trkpt>
      <trkpt lat="48.4655" lon="2.44418">
        <ele>84</ele>
        <time>2015-12-01T18:12:42Z</time>
      </trkpt>
      <trkpt lat="48.46591" lon="2.44285">
        <ele>86</ele>
        <time>2015-12-01T18:14:42Z</time>
      </trkpt>
      <trkpt lat="48.46618" lon="2.44191">
        <ele>88</ele>
        <time>2015-12-01T18:16:42Z</time>
      </trkpt>
      <trkpt lat="48.46623" lon="2.44168">
        <ele>88</ele>
        <time>2015-12-01T18:18:42Z</time>
      </trkpt>
      <trkpt lat="48.46633" lon="2.44133">
        <ele>90</ele>
        <time>2015-12-01T18:20:42Z</time>
      </trkpt>
      <trkpt lat="48.46637" lon="2.44114">
        <ele>90</ele>
        <time>2015-12-01T18:22:42Z</time>
      </trkpt>
      <trkpt lat="48.4664" lon="2.4409">
        <ele>90</ele>
        <time>2015-12-01T18:24:42Z</time>
      </trkpt>
      <trkpt lat="48.46662" lon="2.44092">
        <ele>93</ele>
        <time>2015-12-01T18:26:42Z</time>
      </trkpt>
      <trkpt lat="48.46677" lon="2.44092">
        <ele>96</ele>
        <time>2015-12-01T18:28:42Z</time>
      </trkpt>
      <trkpt lat="48.46699" lon="2.441">
        <ele>101</ele>
        <time>2015-12-01T18:30:42Z</time>
      </trkpt>
      <trkpt lat="48.4671" lon="2.44113">
        <ele>103</ele>
        <time>2015-12-01T18:32:42Z</time>
      </trkpt>
      <trkpt lat="48.4672" lon="2.4412">
        <ele>105</ele>
        <time>2015-12-01T18:34:42Z</time>
      </trkpt>
      <trkpt lat="48.46734" lon="2.44128">
        <ele>108</ele>
        <time>2015-12-01T18:36:42Z</time>
      </trkpt>
      <trkpt lat="48.46744" lon="2.44138">
        <ele>110</ele>
        <time>2015-12-01T18:38:42Z</time>
      </trkpt>
      <trkpt lat="48.46756" lon="2.4415">
        <ele>112</ele>
        <time>2015-12-01T18:40:42Z</time>
      </trkpt>
      <trkpt lat="48.46772" lon="2.44161">
        <ele>114</ele>
        <time>2015-12-01T18:42:42Z</time>
      </trkpt>
      <trkpt lat="48.46791" lon="2.44175">
        <ele>118</ele>
        <time>2015-12-01T18:44:42Z</time>
      </trkpt>
      <trkpt lat="48.46802" lon="2.44184">
        <ele>119</ele>
        <time>2015-12-01T18:46:42Z</time>
      </trkpt>
      <trkpt lat="48.46812" lon="2.44191">
        <ele>121</ele>
        <time>2015-12-01T18:48:42Z</time>
      </trkpt>
      <trkpt lat="48.46818" lon="2.44196">
        <ele>122</ele>
        <time>2015-12-01T18:50:42Z</time>
      </trkpt>
      <trkpt lat="48.46838" lon="2.44198">
        <ele>125</ele>
        <time>2015-12-01T18:52:42Z</time>
      </trkpt>
      <trkpt lat="48.46869" lon="2.44199">
        <ele>127</ele>
        <time>2015-12-01T18:54:42Z</time>
      </trkpt>
      <trkpt lat="48.46888" lon="2.44197">
        <ele>129</ele>
        <time>2015-12-01T18:56:42Z</time>
      </trkpt>
      <trkpt lat="48.46911" lon="2.44196">
        <ele>131</ele>
        <time>2015-12-01T18:58:42Z</time>
      </trkpt>
      <trkpt lat="48.46917" lon="2.4418">
        <ele>132</ele>
        <time>2015-12-01T19:00:42Z</time>
      </trkpt>
      <trkpt lat="48.46922" lon="2.44164">
        <ele>132</ele>
        <time>2015-12-01T19:02:42Z</time>
      </trkpt>
      <trkpt lat="48.46933" lon="2.44176">
        <ele>131</ele>
        <time>2015-12-01T19:04:42Z</time>
      </trkpt>
      <trkpt lat="48.46943" lon="2.44183">
        <ele>131</ele>
        <time>2015-12-01T19:06:42Z</time>
      </trkpt>
      <trkpt lat="48.46955" lon="2.44189">
        <ele>131</ele>
        <time>2015-12-01T19:08:42Z</time>
      </trkpt>
      <trkpt lat="48.46965" lon="2.44192">
        <ele>130</ele>
        <time>2015-12-01T19:10:42Z</time>
      </trkpt>
      <trkpt lat="48.46972" lon="2.44201">
        <ele>130</ele>
        <time>2015-12-01T19:12:42Z</time>
      </trkpt>
      <trkpt lat="48.46984" lon="2.44216">
        <ele>130</ele>
        <time>2015-12-01T19:14:42Z</time>
      </trkpt>
      <trkpt lat="48.46996" lon="2.44231">
        <ele>131</ele>
        <time>2015-12-01T19:16:42Z</time>
      </trkpt>
      <trkpt lat="48.47003" lon="2.4424">
        <ele>131</ele>
        <time>2015-12-01T19:18:42Z</time>
      </trkpt>
      <trkpt lat="48.47006" lon="2.44254">
        <ele>131</ele>
        <time>2015-12-01T19:20:42Z</time>
      </trkpt>
      <trkpt lat="48.47005" lon="2.44265">
        <ele>131</ele>
        <time>2015-12-01T19:22:42Z</time>
      </trkpt>
      <trkpt lat="48.47" lon="2.44288">
        <ele>131</ele>
        <time>2015-12-01T19:24:42Z</time>
      </trkpt>
      <trkpt lat="48.46997" lon="2.44315">
        <ele>131</ele>
        <time>2015-12-01T19:26:42Z</time>
      </trkpt>
      <trkpt lat="48.46997" lon="2.44329">
        <ele>131</ele>
        <time>2015-12-01T19:28:42Z</time>
      </trkpt>
      <trkpt lat="48.46996" lon="2.4434">
        <ele>131</ele>
        <time>2015-12-01T19:30:42Z</time>
      </trkpt>
      <trkpt lat="48.46997" lon="2.44352">
        <ele>131</ele>
        <time>2015-12-01T19:32:42Z</time>
      </trkpt>
      <trkpt lat="48.47002" lon="2.44369">
        <ele>131</ele>
        <time>2015-12-01T19:34:42Z</time>
      </trkpt>
      <trkpt lat="48.47007" lon="2.44377">
        <ele>132</ele>
        <time>2015-12-01T19:36:42Z</time>
      </trkpt>
      <trkpt lat="48.47008" lon="2.44395">
        <ele>132</ele>
        <time>2015-12-01T19:38:42Z</time>
      </trkpt>
      <trkpt lat="48.47003" lon="2.44415">
        <ele>131</ele>
        <time>2015-12-01T19:40:42Z</time>
      </trkpt>
      <trkpt lat="48.46991" lon="2.44433">
        <ele>131</ele>
        <time>2015-12-01T19:42:42Z</time>
      </trkpt>
      <trkpt lat="48.4698" lon="2.44447">
        <ele>131</ele>
        <time>2015-12-01T19:44:42Z</time>
      </trkpt>
      <trkpt lat="48.46973" lon="2.44457">
        <ele>131</ele>
        <time>2015-12-01T19:46:42Z</time>
      </trkpt>
      <trkpt lat="48.4697" lon="2.44476">
        <ele>132</ele>
        <time>2015-12-01T19:48:42Z</time>
      </trkpt>
      <trkpt lat="48.46967" lon="2.44497">
        <ele>133</ele>
        <time>2015-12-01T19:50:42Z</time>
      </trkpt>
      <trkpt lat="48.46964" lon="2.44514">
        <ele>133</ele>
        <time>2015-12-01T19:52:42Z</time>
      </trkpt>
      <trkpt lat="48.46963" lon="2.44531">
        <ele>133</ele>
        <time>2015-12-01T19:54:42Z</time>
      </trkpt>
      <trkpt lat="48.46963" lon="2.44551">
        <ele>134</ele>
        <time>2015-12-01T19:56:42Z</time>
      </trkpt>
      <trkpt lat="48.46961" lon="2.44566">
        <ele>134</ele>
        <time>2015-12-01T19:58:42Z</time>
      </trkpt>
      <trkpt lat="48.46955" lon="2.44601">
        <ele>134</ele>
        <time>2015-12-01T20:00:42Z</time>
      </trkpt>
      <trkpt lat="48.46949" lon="2.44625">
        <ele>133</ele>
        <time>2015-12-01T20:02:42Z</time>
      </trkpt>
      <trkpt lat="48.46947" lon="2.44643">
        <ele>133</ele>
        <time>2015-12-01T20:04:42Z</time>
      </trkpt>
      <trkpt lat="48.46947" lon="2.44656">
        <ele>133</ele>
        <time>2015-12-01T20:06:42Z</time>
      </trkpt>
      <trkpt lat="48.46949" lon="2.44672">
        <ele>133</ele>
        <time>2015-12-01T20:08:42Z</time>
      </trkpt>
      <trkpt lat="48.46955" lon="2.44692">
        <ele>133</ele>
        <time>2015-12-01T20:10:42Z</time>
      </trkpt>
      <trkpt lat="48.46957" lon="2.44708">
        <ele>133</ele>
        <time>2015-12-01T20:12:42Z</time>
      </trkpt>
      <trkpt lat="48.46959" lon="2.4472">
        <ele>132</ele>
        <time>2015-12-01T20:14:42Z</time>
      </trkpt>
      <trkpt lat="48.46964" lon="2.4473">
        <ele>133</ele>
        <time>2015-12-01T20:16:42Z</time>
      </trkpt>
      <trkpt lat="48.46969" lon="2.44741">
        <ele>133</ele>
        <time>2015-12-01T20:18:42Z</time>
      </trkpt>
      <trkpt lat="48.46976" lon="2.44758">
        <ele>134</ele>
        <time>2015-12-01T20:20:42Z</time>
      </trkpt>
      <trkpt lat="48.46983" lon="2.44773">
        <ele>134</ele>
        <time>2015-12-01T20:22:42Z</time>
      </trkpt>
      <trkpt lat="48.46988" lon="2.44785">
        <ele>135</ele>
        <time>2015-12-01T20:24:42Z</time>
      </trkpt>
      <trkpt lat="48.46995" lon="2.44789">
        <ele>135</ele>
        <time>2015-12-01T20:26:42Z</time>
      </trkpt>
      <trkpt lat="48.47007" lon="2.44789">
        <ele>137</ele>
        <time>2015-12-01T20:28:42Z</time>
      </trkpt>
      <trkpt lat="48.47013" lon="2.44767">
        <ele>138</ele>
        <time>2015-12-01T20:30:42Z</time>
      </trkpt>
      <trkpt lat="48.47026" lon="2.44755">
        <ele>139</ele>
        <time>2015-12-01T20:32:42Z</time>
      </trkpt>
      <trkpt lat="48.47044" lon="2.44733">
        <ele>141</ele>
        <time>2015-12-01T20:34:42Z</time>
      </trkpt>
      <trkpt lat="48.47056" lon="2.44721">
        <ele>142</ele>
        <time>2015-12-01T20:36:42Z</time>
      </trkpt>
      <trkpt lat="48.47088" lon="2.44694">
        <ele>144</ele>
        <time>2015-12-01T20:38:42Z</time>
      </trkpt>
      <trkpt lat="48.47099" lon="2.44685">
        <ele>144</ele>
        <time>2015-12-01T20:40:42Z</time>
      </trkpt>
      <trkpt lat="48.47101" lon="2.44672">
        <ele>144</ele>
        <time>2015-12-01T20:42:42Z</time>
      </trkpt>
      <trkpt lat="48.47132" lon="2.44656">
        <ele>144</ele>
        <time>2015-12-01T20:44:42Z</time>
      </trkpt>
      <trkpt lat="48.47161" lon="2.44653">
        <ele>144</ele>
        <time>2015-12-01T20:46:42Z</time>
      </trkpt>
      <trkpt lat="48.47169" lon="2.44645">
        <ele>143</ele>
        <time>2015-12-01T20:48:42Z</time>
      </trkpt>
      <trkpt lat="48.47181" lon="2.44595">
        <ele>140</ele>
        <time>2015-12-01T20:50:42Z</time>
      </trkpt>
      <trkpt lat="48.47234" lon="2.44388">
        <ele>133</ele>
        <time>2015-12-01T20:52:42Z</time>
      </trkpt>
      <trkpt lat="48.47245" lon="2.44344">
        <ele>132</ele>
        <time>2015-12-01T20:54:42Z</time>
      </trkpt>
      <trkpt lat="48.47244" lon="2.44317">
        <ele>132</ele>
        <time>2015-12-01T20:56:42Z</time>
      </trkpt>
      <trkpt lat="48.47273" lon="2.44333">
        <ele>132</ele>
        <time>2015-12-01T20:58:42Z</time>
      </trkpt>
      <trkpt lat="48.47302" lon="2.44354">
        <ele>132</ele>
        <time>2015-12-01T21:00:42Z</time>
      </trkpt>
      <trkpt lat="48.47352" lon="2.44391">
        <ele>133</ele>
        <time>2015-12-01T21:02:42Z</time>
      </trkpt>
      <trkpt lat="48.47469" lon="2.44474">
        <ele>135</ele>
        <time>2015-12-01T21:04:42Z</time>
      </trkpt>
      <trkpt lat="48.47486" lon="2.44478">
        <ele>135</ele>
        <time>2015-12-01T21:06:42Z</time>
      </trkpt>
      <trkpt lat="48.47536" lon="2.4447">
        <ele>136</ele>
        <time>2015-12-01T21:08:42Z</time>
      </trkpt>
      <trkpt lat="48.47548" lon="2.44607">
        <ele>136</ele>
        <time>2015-12-01T21:10:42Z</time>
      </trkpt>
      <trkpt lat="48.4765" lon="2.44615">
        <ele>136</ele>
        <time>2015-12-01T21:12:42Z</time>
      </trkpt>
      <trkpt lat="48.47776" lon="2.44621">
        <ele>135</ele>
        <time>2015-12-01T21:14:42Z</time>
      </trkpt>
      <trkpt lat="48.47802" lon="2.44626">
        <ele>135</ele>
        <time>2015-12-01T21:16:42Z</time>
      </trkpt>
      <trkpt lat="48.47873" lon="2.44647">
        <ele>136</ele>
        <time>2015-12-01T21:18:42Z</time>
      </trkpt>
      <trkpt lat="48.47933" lon="2.44667">
        <ele>138</ele>
        <time>2015-12-01T21:20:42Z</time>
      </trkpt>
      <trkpt lat="48.48021" lon="2.4469">
        <ele>140</ele>
        <time>2015-12-01T21:22:42Z</time>
      </trkpt>
      <trkpt lat="48.48005" lon="2.44739">
        <ele>139</ele>
        <time>2015-12-01T21:24:42Z</time>
      </trkpt>
      <trkpt lat="48.47975" lon="2.4484">
        <ele>141</ele>
        <time>2015-12-01T21:26:42Z</time>
      </trkpt>
      <trkpt lat="48.47964" lon="2.44875">
        <ele>141</ele>
        <time>2015-12-01T21:28:42Z</time>
      </trkpt>
      <trkpt lat="48.47952" lon="2.44906">
        <ele>141</ele>
        <time>2015-12-01T21:30:42Z</time>
      </trkpt>
      <trkpt lat="48.47946" lon="2.44921">
        <ele>141</ele>
        <time>2015-12-01T21:32:42Z</time>
      </trkpt>
      <trkpt lat="48.47941" lon="2.44935">
        <ele>140</ele>
        <time>2015-12-01T21:34:42Z</time>
      </trkpt>
      <trkpt lat="48.47931" lon="2.44965">
        <ele>139</ele>
        <time>2015-12-01T21:36:42Z</time>
      </trkpt>
      <trkpt lat="48.47921" lon="2.45003">
        <ele>138</ele>
        <time>2015-12-01T21:38:42Z</time>
      </trkpt>
      <trkpt lat="48.47913" lon="2.45032">
        <ele>138</ele>
        <time>2015-12-01T21:40:42Z</time>
      </trkpt>
      <trkpt lat="48.47907" lon="2.45052">
        <ele>138</ele>
        <time>2015-12-01T21:42:42Z</time>
      </trkpt>
      <trkpt lat="48.47896" lon="2.45097">
        <ele>137</ele>
        <time>2015-12-01T21:44:42Z</time>
      </trkpt>
      <trkpt lat="48.4789" lon="2.45124">
        <ele>137</ele>
        <time>2015-12-01T21:46:42Z</time>
      </trkpt>
      <trkpt lat="48.47868" lon="2.45236">
        <ele>135</ele>
        <time>2015-12-01T21:48:42Z</time>
      </trkpt>
      <trkpt lat="48.4786" lon="2.45285">
        <ele>136</ele>
        <time>2015-12-01T21:50:42Z</time>
      </trkpt>
      <trkpt lat="48.47854" lon="2.45313">
        <ele>137</ele>
        <time>2015-12-01T21:52:42Z</time>
      </trkpt>
      <trkpt lat="48.47849" lon="2.45337">
        <ele>138</ele>
        <time>2015-12-01T21:54:42Z</time>
      </trkpt>
      <trkpt lat="48.47841" lon="2.45373">
        <ele>137</ele>
        <time>2015-12-01T21:56:42Z</time>
      </trkpt>
      <trkpt lat="48.47828" lon="2.45434">
        <ele>135</ele>
        <time>2015-12-01T21:58:42Z</time>
      </trkpt>
      <trkpt lat="48.47823" lon="2.4547">
        <ele>133</ele>
        <time>2015-12-01T22:00:42Z</time>
      </trkpt>
      <trkpt lat="48.47821" lon="2.45501">
        <ele>133</ele>
        <time>2015-12-01T22:02:42Z</time>
      </trkpt>
      <trkpt lat="48.47816" lon="2.45537">
        <ele>131</ele>
        <time>2015-12-01T22:04:42Z</time>
      </trkpt>
      <trkpt lat="48.47818" lon="2.45559">
        <ele>131</ele>
        <time>2015-12-01T22:06:42Z</time>
      </trkpt>
      <trkpt lat="48.47823" lon="2.45569">
        <ele>131</ele>
        <time>2015-12-01T22:08:42Z</time>
      </trkpt>
      <trkpt lat="48.47829" lon="2.45582">
        <ele>132</ele>
        <time>2015-12-01T22:10:42Z</time>
      </trkpt>
      <trkpt lat="48.47798" lon="2.45737">
        <ele>121</ele>
        <time>2015-12-01T22:12:42Z</time>
      </trkpt>
      <trkpt lat="48.47782" lon="2.45805">
        <ele>114</ele>
        <time>2015-12-01T22:14:42Z</time>
      </trkpt>
      <trkpt lat="48.47775" lon="2.45852">
        <ele>110</ele>
        <time>2015-12-01T22:16:42Z</time>
      </trkpt>
      <trkpt lat="48.47767" lon="2.45897">
        <ele>106</ele>
        <time>2015-12-01T22:18:42Z</time>
      </trkpt>
      <trkpt lat="48.47769" lon="2.45928">
        <ele>104</ele>
        <time>2015-12-01T22:20:42Z</time>
      </trkpt>
      <trkpt lat="48.47767" lon="2.45966">
        <ele>101</ele>
        <time>2015-12-01T22:22:42Z</time>
      </trkpt>
      <trkpt lat="48.47755" lon="2.46007">
        <ele>98</ele>
        <time>2015-12-01T22:24:42Z</time>
      </trkpt>
      <trkpt lat="48.47715" lon="2.46106">
        <ele>90</ele>
        <time>2015-12-01T22:26:42Z</time>
      </trkpt>
      <trkpt lat="48.47709" lon="2.46123">
        <ele>90</ele>
        <time>2015-12-01T22:28:42Z</time>
      </trkpt>
      <trkpt lat="48.47703" lon="2.46127">
        <ele>90</ele>
        <time>2015-12-01T22:30:42Z</time>
      </trkpt>
      <trkpt lat="48.47709" lon="2.46259">
        <ele>88</ele>
        <time>2015-12-01T22:32:42Z</time>
      </trkpt>
      <trkpt lat="48.47698" lon="2.46247">
        <ele>88</ele>
        <time>2015-12-01T22:34:42Z</time>
      </trkpt>
      <trkpt lat="48.47671" lon="2.46214">
        <ele>88</ele>
        <time>2015-12-01T22:36:42Z</time>
      </trkpt>
      <trkpt lat="48.47651" lon="2.46188">
        <ele>87</ele>
        <time>2015-12-01T22:38:42Z</time>
      </trkpt>
      <trkpt lat="48.47632" lon="2.46167">
        <ele>87</ele>
        <time>2015-12-01T22:40:42Z</time>
      </trkpt>
      <trkpt lat="48.47621" lon="2.46146">
        <ele>87</ele>
        <time>2015-12-01T22:42:42Z</time>
      </trkpt>
      <trkpt lat="48.47609" lon="2.46118">
        <ele>87</ele>
        <time>2015-12-01T22:44:42Z</time>
      </trkpt>
      <trkpt lat="48.476" lon="2.46093">
        <ele>87</ele>
        <time>2015-12-01T22:46:42Z</time>
      </trkpt>
      <trkpt lat="48.47585" lon="2.46069">
        <ele>86</ele>
        <time>2015-12-01T22:48:42Z</time>
      </trkpt>
      <trkpt lat="48.47573" lon="2.46068">
        <ele>86</ele>
        <time>2015-12-01T22:50:42Z</time>
      </trkpt>
      <trkpt lat="48.4753" lon="2.46054">
        <ele>87</ele>
        <time>2015-12-01T22:52:42Z</time>
      </trkpt>
      <trkpt lat="48.47507" lon="2.4605">
        <ele>88</ele>
        <time>2015-12-01T22:54:42Z</time>
      </trkpt>
      <trkpt lat="48.47487" lon="2.46045">
        <ele>90</ele>
        <time>2015-12-01T22:56:42Z</time>
      </trkpt>
      <trkpt lat="48.47479" lon="2.46054">
        <ele>90</ele>
        <time>2015-12-01T22:58:42Z</time>
      </trkpt>
      <trkpt lat="48.47468" lon="2.46072">
        <ele>90</ele>
        <time>2015-12-01T23:00:42Z</time>
      </trkpt>
      <trkpt lat="48.47452" lon="2.46094">
        <ele>90</ele>
        <time>2015-12-01T23:02:42Z</time>
      </trkpt>
      <trkpt lat="48.47437" lon="2.46112">
        <ele>90</ele>
        <time>2015-12-01T23:04:42Z</time>
      </trkpt>
      <trkpt lat="48.47423" lon="2.46131">
        <ele>90</ele>
        <time>2015-12-01T23:06:42Z</time>
      </trkpt>
      <trkpt lat="48.4741" lon="2.4615">
        <ele>89</ele>
        <time>2015-12-01T23:08:42Z</time>
      </trkpt>
      <trkpt lat="48.47385" lon="2.4616">
        <ele>88</ele>
        <time>2015-12-01T23:10:42Z</time>
      </trkpt>
      <trkpt lat="48.47379" lon="2.46158">
        <ele>89</ele>
        <time>2015-12-01T23:12:42Z</time>
      </trkpt>
      <trkpt lat="48.47362" lon="2.46156">
        <ele>89</ele>
        <time>2015-12-01T23:14:42Z</time>
      </trkpt>
      <trkpt lat="48.47343" lon="2.46149">
        <ele>89</ele>
        <time>2015-12-01T23:16:42Z</time>
      </trkpt>
      <trkpt lat="48.47327" lon="2.46142">
        <ele>89</ele>
        <time>2015-12-01T23:18:42Z</time>
      </trkpt>
      <trkpt lat="48.473" lon="2.46131">
        <ele>90</ele>
        <time>2015-12-01T23:20:42Z</time>
      </trkpt>
      <trkpt lat="48.47282" lon="2.46121">
        <ele>91</ele>
        <time>2015-12-01T23:22:42Z</time>
      </trkpt>
      <trkpt lat="48.47266" lon="2.46116">
        <ele>92</ele>
        <time>2015-12-01T23:24:42Z</time>
      </trkpt>
      <trkpt lat="48.4725" lon="2.46116">
        <ele>92</ele>
        <time>2015-12-01T23:26:42Z</time>
      </trkpt>
      <trkpt lat="48.47231" lon="2.46113">
        <ele>96</ele>
        <time>2015-12-01T23:28:42Z</time>
      </trkpt>
      <trkpt lat="48.47218" lon="2.46118">
        <ele>98</ele>
        <time>2015-12-01T23:30:42Z</time>
      </trkpt>
      <trkpt lat="48.47209" lon="2.46127">
        <ele>98</ele>
        <time>2015-12-01T23:32:42Z</time>
      </trkpt>
      <trkpt lat="48.47202" lon="2.4614">
        <ele>99</ele>
        <time>2015-12-01T23:34:42Z</time>
      </trkpt>
      <trkpt lat="48.4719" lon="2.46177">
        <ele>99</ele>
        <time>2015-12-01T23:36:42Z</time>
      </trkpt>
      <trkpt lat="48.4718" lon="2.46203">
        <ele>98</ele>
        <time>2015-12-01T23:38:42Z</time>
      </trkpt>
      <trkpt lat="48.47172" lon="2.4623">
        <ele>97</ele>
        <time>2015-12-01T23:40:42Z</time>
      </trkpt>
      <trkpt lat="48.47165" lon="2.46262">
        <ele>96</ele>
        <time>2015-12-01T23:42:42Z</time>
      </trkpt>
      <trkpt lat="48.47161" lon="2.46287">
        <ele>95</ele>
        <time>2015-12-01T23:44:42Z</time>
      </trkpt>
      <trkpt lat="48.47155" lon="2.46313">
        <ele>95</ele>
        <time>2015-12-01T23:46:42Z</time>
      </trkpt>
      <trkpt lat="48.47149" lon="2.46356">
        <ele>96</ele>
        <time>2015-12-01T23:48:42Z</time>
      </trkpt>
      <trkpt lat="48.47142" lon="2.46392">
        <ele>97</ele>
        <time>2015-12-01T23:50:42Z</time>
      </trkpt>
      <trkpt lat="48.47137" lon="2.46419">
        <ele>97</ele>
        <time>2015-12-01T23:52:42Z</time>
      </trkpt>
      <trkpt lat="48.47133" lon="2.46435">
        <ele>97</ele>
        <time>2015-12-01T23:54:42Z</time>
      </trkpt>
      <trkpt lat="48.47128" lon="2.46448">
        <ele>97</ele>
        <time>2015-12-01T23:56:42Z</time>
      </trkpt>
      <trkpt lat="48.47117" lon="2.4646">
        <ele>97</ele>
        <time>2015-12-01T23:58:42Z</time>
      </trkpt>
      <trkpt lat="48.47103" lon="2.46474">
        <ele>97</ele>
        <time>2015-12-02T00:00:42Z</time>
      </trkpt>
      <trkpt lat="48.47078" lon="2.46494">
        <ele>97</ele>
        <time>2015-12-02T00:02:42Z</time>
      </trkpt>
      <trkpt lat="48.47046" lon="2.46513">
        <ele>97</ele>
        <time>2015-12-02T00:04:42Z</time>
      </trkpt>
      <trkpt lat="48.4698" lon="2.46552">
        <ele>96</ele>
        <time>2015-12-02T00:06:42Z</time>
      </trkpt>
      <trkpt lat="48.46946" lon="2.46578">
        <ele>95</ele>
        <time>2015-12-02T00:08:42Z</time>
      </trkpt>
      <trkpt lat="48.46927" lon="2.46591">
        <ele>95</ele>
        <time>2015-12-02T00:10:42Z</time>
      </trkpt>
      <trkpt lat="48.46915" lon="2.46597">
        <ele>96</ele>
        <time>2015-12-02T00:12:42Z</time>
      </trkpt>
      <trkpt lat="48.46906" lon="2.46611">
        <ele>96</ele>
        <time>2015-12-02T00:14:42Z</time>
      </trkpt>
      <trkpt lat="48.469" lon="2.46618">
        <ele>96</ele>
        <time>2015-12-02T00:16:42Z</time>
      </trkpt>
      <trkpt lat="48.46892" lon="2.46634">
        <ele>96</ele>
        <time>2015-12-02T00:18:42Z</time>
      </trkpt>
      <trkpt lat="48.46886" lon="2.46652">
        <ele>97</ele>
        <time>2015-12-02T00:20:42Z</time>
      </trkpt>
      <trkpt lat="48.4687" lon="2.46712">
        <ele>101</ele>
        <time>2015-12-02T00:22:42Z</time>
      </trkpt>
      <trkpt lat="48.46853" lon="2.46773">
        <ele>104</ele>
        <time>2015-12-02T00:24:42Z</time>
      </trkpt>
      <trkpt lat="48.46842" lon="2.46813">
        <ele>105</ele>
        <time>2015-12-02T00:26:42Z</time>
      </trkpt>
      <trkpt lat="48.46826" lon="2.46875">
        <ele>104</ele>
        <time>2015-12-02T00:28:42Z</time>
      </trkpt>
      <trkpt lat="48.46819" lon="2.46909">
        <ele>103</ele>
        <time>2015-12-02T00:30:42Z</time>
      </trkpt>
      <trkpt lat="48.46812" lon="2.46931">
        <ele>102</ele>
        <time>2015-12-02T00:32:42Z</time>
      </trkpt>
      <trkpt lat="48.46807" lon="2.46948">
        <ele>102</ele>
        <time>2015-12-02T00:34:42Z</time>
      </trkpt>
      <trkpt lat="48.46786" lon="2.46998">
        <ele>101</ele>
        <time>2015-12-02T00:36:42Z</time>
      </trkpt>
      <trkpt lat="48.46769" lon="2.47039">
        <ele>99</ele>
        <time>2015-12-02T00:38:42Z</time>
      </trkpt>
      <trkpt lat="48.46754" lon="2.47068">
        <ele>99</ele>
        <time>2015-12-02T00:40:42Z</time>
      </trkpt>
      <trkpt lat="48.46742" lon="2.47092">
        <ele>99</ele>
        <time>2015-12-02T00:42:42Z</time>
      </trkpt>
      <trkpt lat="48.46735" lon="2.47111">
        <ele>99</ele>
        <time>2015-12-02T00:44:42Z</time>
      </trkpt>
      <trkpt lat="48.4673" lon="2.47128">
        <ele>99</ele>
        <time>2015-12-02T00:46:42Z</time>
      </trkpt>
      <trkpt lat="48.46725" lon="2.47151">
        <ele>99</ele>
        <time>2015-12-02T00:48:42Z</time>
      </trkpt>
      <trkpt lat="48.46718" lon="2.47165">
        <ele>99</ele>
        <time>2015-12-02T00:50:42Z</time>
      </trkpt>
      <trkpt lat="48.4671" lon="2.47172">
        <ele>98</ele>
        <time>2015-12-02T00:52:42Z</time>
      </trkpt>
      <trkpt lat="48.46693" lon="2.47173">
        <ele>99</ele>
        <time>2015-12-02T00:54:42Z</time>
      </trkpt>
      <trkpt lat="48.4667" lon="2.47174">
        <ele>100</ele>
        <time>2015-12-02T00:56:42Z</time>
      </trkpt>
      <trkpt lat="48.46655" lon="2.47172">
        <ele>101</ele>
        <time>2015-12-02T00:58:42Z</time>
      </trkpt>
      <trkpt lat="48.46638" lon="2.47176">
        <ele>100</ele>
        <time>2015-12-02T01:00:42Z</time>
      </trkpt>
      <trkpt lat="48.4662" lon="2.4718">
        <ele>101</ele>
        <time>2015-12-02T01:02:42Z</time>
      </trkpt>
      <trkpt lat="48.46604" lon="2.47188">
        <ele>100</ele>
        <time>2015-12-02T01:04:42Z</time>
      </trkpt>
      <trkpt lat="48.46573" lon="2.47202">
        <ele>99</ele>
        <time>2015-12-02T01:06:42Z</time>
      </trkpt>
      <trkpt lat="48.46562" lon="2.47206">
        <ele>98</ele>
        <time>2015-12-02T01:08:42Z</time>
      </trkpt>
      <trkpt lat="48.46551" lon="2.47202">
        <ele>98</ele>
        <time>2015-12-02T01:10:42Z</time>
      </trkpt>
      <trkpt lat="48.46538" lon="2.47195">
        <ele>98</ele>
        <time>2015-12-02T01:12:42Z</time>
      </trkpt>
      <trkpt lat="48.4652" lon="2.47181">
        <ele>98</ele>
        <time>2015-12-02T01:14:42Z</time>
      </trkpt>
      <trkpt lat="48.46506" lon="2.47171">
        <ele>98</ele>
        <time>2015-12-02T01:16:42Z</time>
      </trkpt>
      <trkpt lat="48.46495" lon="2.47166">
        <ele>99</ele>
        <time>2015-12-02T01:18:42Z</time>
      </trkpt>
      <trkpt lat="48.46482" lon="2.47168">
        <ele>100</ele>
        <time>2015-12-02T01:20:42Z</time>
      </trkpt>
      <trkpt lat="48.46474" lon="2.47177">
        <ele>100</ele>
        <time>2015-12-02T01:22:42Z</time>
      </trkpt>
      <trkpt lat="48.46466" lon="2.47186">
        <ele>100</ele>
        <time>2015-12-02T01:24:42Z</time>
      </trkpt>
      <trkpt lat="48.46452" lon="2.47198">
        <ele>101</ele>
        <time>2015-12-02T01:26:42Z</time>
      </trkpt>
      <trkpt lat="48.46439" lon="2.47216">
        <ele>101</ele>
        <time>2015-12-02T01:28:42Z</time>
      </trkpt>
      <trkpt lat="48.46425" lon="2.47237">
        <ele>102</ele>
        <time>2015-12-02T01:30:42Z</time>
      </trkpt>
      <trkpt lat="48.46415" lon="2.47255">
        <ele>102</ele>
        <time>2015-12-02T01:32:42Z</time>
      </trkpt>
      <trkpt lat="48.46411" lon="2.47268">
        <ele>101</ele>
        <time>2015-12-02T01:34:42Z</time>
      </trkpt>
      <trkpt lat="48.46407" lon="2.47277">
        <ele>100</ele>
        <time>2015-12-02T01:36:42Z</time>
      </trkpt>
      <trkpt lat="48.46399" lon="2.47283">
        <ele>100</ele>
        <time>2015-12-02T01:38:42Z</time>
      </trkpt>
      <trkpt lat="48.4639" lon="2.47287">
        <ele>100</ele>
        <time>2015-12-02T01:40:42Z</time>
      </trkpt>
      <trkpt lat="48.46378" lon="2.47292">
        <ele>99</ele>
        <time>2015-12-02T01:42:42Z</time>
      </trkpt>
      <trkpt lat="48.46368" lon="2.47302">
        <ele>99</ele>
        <time>2015-12-02T01:44:42Z</time>
      </trkpt>
      <trkpt lat="48.4636" lon="2.47309">
        <ele>98</ele>
        <time>2015-12-02T01:46:42Z</time>
      </trkpt>
      <trkpt lat="48.46347" lon="2.4732">
        <ele>97</ele>
        <time>2015-12-02T01:48:42Z</time>
      </trkpt>
      <trkpt lat="48.46335" lon="2.47331">
        <ele>96</ele>
        <time>2015-12-02T01:50:42Z</time>
      </trkpt>
      <trkpt lat="48.46275" lon="2.47398">
        <ele>88</ele>
        <time>2015-12-02T01:52:42Z</time>
      </trkpt>
      <trkpt lat="48.46253" lon="2.47421">
        <ele>85</ele>
        <time>2015-12-02T01:54:42Z</time>
      </trkpt>
      <trkpt lat="48.46242" lon="2.47434">
        <ele>84</ele>
        <time>2015-12-02T01:56:42Z</time>
      </trkpt>
      <trkpt lat="48.46233" lon="2.47441">
        <ele>83</ele>
        <time>2015-12-02T01:58:42Z</time>
      </trkpt>
      <trkpt lat="48.46228" lon="2.47451">
        <ele>82</ele>
        <time>2015-12-02T02:00:42Z</time>
      </trkpt>
      <trkpt lat="48.46215" lon="2.47461">
        <ele>81</ele>
        <time>2015-12-02T02:02:42Z</time>
      </trkpt>
      <trkpt lat="48.46188" lon="2.47486">
        <ele>79</ele>
        <time>2015-12-02T02:04:42Z</time>
      </trkpt>
      <trkpt lat="48.46158" lon="2.47516">
        <ele>78</ele>
        <time>2015-12-02T02:06:42Z</time>
      </trkpt>
      <trkpt lat="48.46122" lon="2.47552">
        <ele>77</ele>
        <time>2015-12-02T02:08:42Z</time>
      </trkpt>
      <trkpt lat="48.46103" lon="2.47572">
        <ele>77</ele>
        <time>2015-12-02T02:10:42Z</time>
      </trkpt>
      <trkpt lat="48.46073" lon="2.47602">
        <ele>76</ele>
        <time>2015-12-02T02:12:42Z</time>
      </trkpt>
      <trkpt lat="48.46056" lon="2.4762">
        <ele>76</ele>
        <time>2015-12-02T02:14:42Z</time>
      </trkpt>
      <trkpt lat="48.46036" lon="2.47639">
        <ele>75</ele>
        <time>2015-12-02T02:16:42Z</time>
      </trkpt>
      <trkpt lat="48.46" lon="2.47677">
        <ele>74</ele>
        <time>2015-12-02T02:18:42Z</time>
      </trkpt>
      <trkpt lat="48.45963" lon="2.47716">
        <ele>70</ele>
        <time>2015-12-02T02:20:42Z</time>
      </trkpt>
      <trkpt lat="48.45935" lon="2.47743">
        <ele>67</ele>
        <time>2015-12-02T02:22:42Z</time>
      </trkpt>
      <trkpt lat="48.45916" lon="2.47765">
        <ele>65</ele>
        <time>2015-12-02T02:24:42Z</time>
      </trkpt>
      <trkpt lat="48.45882" lon="2.47798">
        <ele>65</ele>
        <time>2015-12-02T02:26:42Z</time>
      </trkpt>
      <trkpt lat="48.457" lon="2.47986">
        <ele>60</ele>
        <time>2015-12-02T02:28:42Z</time>
      </trkpt>
      <trkpt lat="48.45683" lon="2.4798">
        <ele>60</ele>
        <time>2015-12-02T02:30:42Z</time>
      </trkpt>
      <trkpt lat="48.45666" lon="2.47969">
        <ele>61</ele>
        <time>2015-12-02T02:32:42Z</time>
      </trkpt>
      <trkpt lat="48.45639" lon="2.47956">
        <ele>62</ele>
        <time>2015-12-02T02:34:42Z</time>
      </trkpt>
      <trkpt lat="48.45623" lon="2.47944">
        <ele>62</ele>
        <time>2015-12-02T02:36:42Z</time>
      </trkpt>
      <trkpt lat="48.4561" lon="2.47936">
        <ele>62</ele>
        <time>2015-12-02T02:38:42Z</time>
      </trkpt>
      <trkpt lat="48.45597" lon="2.47931">
        <ele>62</ele>
        <time>2015-12-02T02:40:42Z</time>
      </trkpt>
      <trkpt lat="48.45588" lon="2.47927">
        <ele>62</ele>
        <time>2015-12-02T02:42:42Z</time>
      </trkpt>
      <trkpt lat="48.45581" lon="2.47924">
        <ele>62</ele>
        <time>2015-12-02T02:44:42Z</time>
      </trkpt>
      <trkpt lat="48.45574" lon="2.47941">
        <ele>61</ele>
        <time>2015-12-02T02:46:42Z</time>
      </trkpt>
      <trkpt lat="48.45567" lon="2.47953">
        <ele>61</ele>
        <time>2015-12-02T02:48:42Z</time>
      </trkpt>
      <trkpt lat="48.45554" lon="2.47962">
        <ele>60</ele>
        <time>2015-12-02T02:50:42Z</time>
      </trkpt>
      <trkpt lat="48.45533" lon="2.47978">
        <ele>59</ele>
        <time>2015-12-02T02:52:42Z</time>
      </trkpt>
      <trkpt lat="48.45511" lon="2.47995">
        <ele>57</ele>
        <time>2015-12-02T02:54:42Z</time>
      </trkpt>
      <trkpt lat="48.45487" lon="2.48013">
        <ele>56</ele>
        <time>2015-12-02T02:56:42Z</time>
      </trkpt>
      <trkpt lat="48.45479" lon="2.48015">
        <ele>56</ele>
        <time>2015-12-02T02:58:42Z</time>
      </trkpt>
      <trkpt lat="48.45466" lon="2.47989">
        <ele>56</ele>
        <time>2015-12-02T03:00:42Z</time>
      </trkpt>
      <trkpt lat="48.45454" lon="2.47961">
        <ele>57</ele>
        <time>2015-12-02T03:02:42Z</time>
      </trkpt>
      <trkpt lat="48.45445" lon="2.47939">
        <ele>57</ele>
        <time>2015-12-02T03:04:42Z</time>
      </trkpt>
      <trkpt lat="48.45436" lon="2.47921">
        <ele>57</ele>
        <time>2015-12-02T03:06:42Z</time>
      </trkpt>
      <trkpt lat="48.45423" lon="2.47902">
        <ele>58</ele>
        <time>2015-12-02T03:08:42Z</time>
      </trkpt>
      <trkpt lat="48.45385" lon="2.47859">
        <ele>57</ele>
        <time>2015-12-02T03:10:42Z</time>
      </trkpt>
      <trkpt lat="48.4536" lon="2.47832">
        <ele>56</ele>
        <time>2015-12-02T03:12:42Z</time>
      </trkpt>
      <trkpt lat="48.4534" lon="2.47808">
        <ele>56</ele>
        <time>2015-12-02T03:14:42Z</time>
      </trkpt>
      <trkpt lat="48.45323" lon="2.47791">
        <ele>56</ele>
        <time>2015-12-02T03:16:42Z</time>
      </trkpt>
      <trkpt lat="48.45304" lon="2.47776">
        <ele>56</ele>
        <time>2015-12-02T03:18:42Z</time>
      </trkpt>
      <trkpt lat="48.45296" lon="2.47781">
        <ele>56</ele>
        <time>2015-12-02T03:20:42Z</time>
      </trkpt>
      <trkpt lat="48.45273" lon="2.47825">
        <ele>55</ele>
        <time>2015-12-02T03:22:42Z</time>
      </trkpt>
      <trkpt lat="48.45266" lon="2.47842">
        <ele>55</ele>
        <time>2015-12-02T03:24:42Z</time>
      </trkpt>
      <trkpt lat="48.45264" lon="2.47855">
        <ele>55</ele>
        <time>2015-12-02T03:26:42Z</time>
      </trkpt>
      <trkpt lat="48.45263" lon="2.47872">
        <ele>56</ele>
        <time>2015-12-02T03:28:42Z</time>
      </trkpt>
      <trkpt lat="48.45264" lon="2.47901">
        <ele>56</ele>
        <time>2015-12-02T03:30:42Z</time>
      </trkpt>
      <trkpt lat="48.45274" lon="2.4791">
        <ele>56</ele>
        <time>2015-12-02T03:32:42Z</time>
      </trkpt>
      <trkpt lat="48.45289" lon="2.47924">
        <ele>56</ele>
        <time>2015-12-02T03:34:42Z</time>
      </trkpt>
      <trkpt lat="48.45313" lon="2.47951">
        <ele>56</ele>
        <time>2015-12-02T03:36:42Z</time>
      </trkpt>
      <trkpt lat="48.45338" lon="2.47984">
        <ele>56</ele>
        <time>2015-12-02T03:38:42Z</time>
      </trkpt>
      <trkpt lat="48.45352" lon="2.48006">
        <ele>56</ele>
        <time>2015-12-02T03:40:42Z</time>
      </trkpt>
      <trkpt lat="48.45372" lon="2.48039">
        <ele>56</ele>
        <time>2015-12-02T03:42:42Z</time>
      </trkpt>
      <trkpt lat="48.4539" lon="2.48066">
        <ele>55</ele>
        <time>2015-12-02T03:44:42Z</time>
      </trkpt>
      <trkpt lat="48.45401" lon="2.48084">
        <ele>55</ele>
        <time>2015-12-02T03:46:42Z</time>
      </trkpt>
    </trkseg>
  </trk>
</gpx>